This is the latest recevied weather packets stored in our database for station/object WE0DX-1. If no packets are shown the sender has not sent any weather packets the latest 1 day(s).
| Time | Temp. | Humidity | Pressure | Rain* | Wind** | Luminosity | Snow |
|---|---|---|---|---|---|---|---|
| 1836274651 | 21.67° C | 67% | 1016.1 hPa | 0 mm | 0 m/s | 0 W/m² | - |
| 1836274504 | 21.67° C | 68% | 1015.9 hPa | 0 mm | 0 m/s | 0 W/m² | - |
| 1836274348 | 21.67° C | 67% | 1016 hPa | 0 mm | 0 m/s | 0 W/m² | - |
| 1836274202 | 21.67° C | 68% | 1016 hPa | 0 mm | 0 m/s | 0 W/m² | - |
| 1836274047 | 21.67° C | 67% | 1016.1 hPa | 0 mm | 0 m/s | 0 W/m² | - |
| 1778051579 | 7.22° C | 85% | 1013.7 hPa | 0 mm | 0 m/s | 0 W/m² | - |
| 1778051276 | 7.22° C | 86% | 1013.5 hPa | 0 mm | 0 m/s | 0 W/m² | - |
| 1778050973 | 7.22° C | 88% | 1013.5 hPa | 0 mm | 0 m/s | 0 W/m² | - |
| 1778050670 | 7.22° C | 89% | 1013.7 hPa | 0 mm | 0 m/s | 0 W/m² | - |
| 1778050367 | 7.22° C | 87% | 1014.2 hPa | 0 mm | 0 m/s | 0 W/m² | - |
| 1778050059 | 7.22° C | 83% | 1014.3 hPa | 0 mm | 0 m/s | 0 W/m² | - |
| 1778049754 | 7.22° C | 86% | 1014.3 hPa | 0 mm | 0 m/s | 0 W/m² | - |
| 1778049452 | 7.22° C | 90% | 1014.1 hPa | 0 mm | 0 m/s | 0 W/m² | - |
| 1778049149 | 7.22° C | 89% | 1014.1 hPa | 0 mm | 0 m/s | 0 W/m² | - |
| 1778048848 | 7.22° C | 91% | 1014.4 hPa | 0 mm | 0 m/s | 0 W/m² | - |
| 1778048545 | 7.22° C | 87% | 1014.5 hPa | 0 mm | 0 m/s | 0 W/m² | - |
| 1778048240 | 7.78° C | 85% | 1014.8 hPa | 0 mm | 0 m/s | 0 W/m² | - |
| 1778047938 | 7.22° C | 84% | 1014.9 hPa | 0 mm | 0 m/s | 0 W/m² | - |
| 1778047637 | 7.22° C | 87% | 1014.9 hPa | 0 mm | 0 m/s | 0 W/m² | - |
| 1778047333 | 7.22° C | 85% | 1014.8 hPa | 0 mm | 0 m/s | 0 W/m² | - |
| 1778047030 | 7.22° C | 84% | 1014.7 hPa | 0 mm | 0 m/s | 0 W/m² | - |
| 1778046727 | 7.22° C | 88% | 1014.9 hPa | 0 mm | 0 m/s | 0 W/m² | - |
| 1778046424 | 7.22° C | 87% | 1014.8 hPa | 0 mm | 0 m/s | 0 W/m² | - |
| 1778046120 | 7.78° C | 85% | 1015 hPa | 0 mm | 0 m/s | 0 W/m² | - |
| 1778045818 | 7.78° C | 83% | 1015 hPa | 0 mm | 0 m/s | 0 W/m² | - |
* Rain latest hour (hover to see other rain measurements)
** Current wind speed in m/s (hover to see current wind gust speed)